Time;durP1;ratioP1;P1;durP2;ratioP2;P2;SDS_P1;SDS_P2;PMS_P1;PMS_P2;Temp;Humidity;BMP_temperature;BMP_pressure;BME280_temperature;BME280_humidity;BME280_pressure;Samples;Min_cycle;Max_cycle;Signal;HPM_P1;HPM_P2
2022/03/22 00:01:26;;;;;;;2.53;0.82;;;;;;;22.63;31.96;101697.28;4196061;28;20106;-62
2022/03/22 00:03:28;;;;;;;3.13;0.90;;;;;;;22.64;32.16;101701.78;4199655;28;20045;-62
2022/03/22 00:05:34;;;;;;;3.47;1.13;;;;;;;22.64;31.89;101704.56;4199533;28;20041;-63
2022/03/22 00:07:35;;;;;;;1.25;0.80;;;;;;;22.65;31.86;101702.63;4183202;28;20099;-63
2022/03/22 00:09:37;;;;;;;3.00;0.85;;;;;;;22.61;32.23;101699.53;4199308;28;20545;-63
2022/03/22 00:11:56;;;;;;;1.83;1.20;;;;;;;22.64;32.03;101712.09;4199016;28;20094;-63
2022/03/22 00:14:20;;;;;;;2.78;0.77;;;;;;;22.62;32.05;101708.72;4199447;28;20094;-62
2022/03/22 00:16:31;;;;;;;2.72;0.93;;;;;;;22.63;32.46;101714.03;4199260;28;20098;-63
2022/03/22 00:18:33;;;;;;;1.60;0.80;;;;;;;22.65;32.32;101716.56;4162466;28;20480;-63
2022/03/22 00:20:35;;;;;;;3.85;0.80;;;;;;;22.60;32.07;101711.81;4195197;28;20098;-63
2022/03/22 00:22:40;;;;;;;1.35;0.95;;;;;;;22.63;32.17;101714.03;4198883;28;20105;-62
2022/03/22 00:24:41;;;;;;;2.00;1.20;;;;;;;22.64;32.09;101720.47;4197571;28;20040;-62
2022/03/22 00:26:55;;;;;;;1.83;0.90;;;;;;;22.62;32.02;101717.94;4199070;28;20032;-63
2022/03/22 00:28:59;;;;;;;1.65;0.70;;;;;;;22.64;32.50;101726.06;4180789;28;20454;-64
2022/03/22 00:31:05;;;;;;;2.50;1.02;;;;;;;22.62;32.02;101722.69;4184609;28;20045;-64
2022/03/22 00:33:09;;;;;;;1.23;0.80;;;;;;;22.64;32.42;101720.47;4166187;28;20045;-63
2022/03/22 00:35:11;;;;;;;2.60;1.10;;;;;;;22.62;32.55;101723.50;4183940;28;20087;-63
2022/03/22 00:37:26;;;;;;;1.80;0.82;;;;;;;22.63;32.19;101727.97;4184100;28;20083;-65
2022/03/22 00:39:28;;;;;;;3.33;0.82;;;;;;;22.65;32.69;101731.34;4166502;28;20038;-63
2022/03/22 00:41:32;;;;;;;1.17;0.88;;;;;;;22.64;32.57;101737.22;4182738;28;20087;-64
2022/03/22 00:43:34;;;;;;;2.70;1.10;;;;;;;22.64;32.24;101732.47;4181870;28;20049;-64
2022/03/22 00:45:39;;;;;;;1.63;1.10;;;;;;;22.64;32.54;101738.03;4183149;28;20435;-63
2022/03/22 00:47:40;;;;;;;1.85;1.10;;;;;;;22.63;32.63;101741.91;4182908;28;20041;-65
2022/03/22 00:49:45;;;;;;;1.40;0.82;;;;;;;22.63;32.56;101741.91;4184548;28;20067;-62
2022/03/22 00:51:47;;;;;;;1.75;0.90;;;;;;;22.63;32.29;101741.91;4181732;28;20051;-64
2022/03/22 00:53:52;;;;;;;4.55;1.00;;;;;;;22.63;32.58;101744.72;4181419;28;20173;-62
2022/03/22 00:55:53;;;;;;;2.70;1.00;;;;;;;22.63;32.41;101747.50;4182525;28;20546;-63
2022/03/22 00:57:56;;;;;;;1.63;1.10;;;;;;;22.63;32.71;101736.34;4182711;28;20067;-63
2022/03/22 01:00:07;;;;;;;3.03;0.88;;;;;;;22.62;32.48;101737.47;4182869;28;20045;-64
2022/03/22 01:02:08;;;;;;;1.83;0.98;;;;;;;22.62;32.74;101737.47;4182551;28;20045;-64
2022/03/22 01:04:13;;;;;;;2.80;1.10;;;;;;;22.61;32.37;101744.16;4182875;28;20040;-65
2022/03/22 01:06:14;;;;;;;2.60;1.10;;;;;;;22.62;32.48;101747.78;4181415;28;20029;-64
2022/03/22 01:08:16;;;;;;;3.92;0.93;;;;;;;22.63;32.63;101746.66;4183120;28;20033;-64
2022/03/22 01:10:40;;;;;;;1.52;0.93;;;;;;;22.62;32.32;101748.63;4182657;28;20102;-64
2022/03/22 01:12:43;;;;;;;1.38;0.93;;;;;;;22.61;32.55;101744.16;4182293;28;20049;-65
2022/03/22 01:14:45;;;;;;;1.02;0.77;;;;;;;22.62;32.46;101745.00;4182007;28;20033;-63
2022/03/22 01:16:46;;;;;;;2.05;0.88;;;;;;;22.62;32.41;101754.19;4182302;28;20020;-63
2022/03/22 01:18:53;;;;;;;1.35;0.93;;;;;;;22.61;32.44;101748.91;4182809;28;20167;-64
2022/03/22 01:21:11;;;;;;;1.23;0.80;;;;;;;22.61;32.35;101749.75;4182681;28;20094;-63
2022/03/22 01:23:12;;;;;;;1.38;0.98;;;;;;;22.62;32.73;101751.41;4182084;28;20439;-63
2022/03/22 01:25:19;;;;;;;1.30;0.82;;;;;;;22.61;32.62;101760.91;4182465;28;20095;-64
2022/03/22 01:27:22;;;;;;;1.08;0.82;;;;;;;22.62;32.44;101765.34;4181917;28;20094;-64
2022/03/22 01:29:25;;;;;;;3.53;1.05;;;;;;;22.61;32.70;101760.91;4192021;28;20048;-63
2022/03/22 01:31:39;;;;;;;1.95;0.90;;;;;;;22.61;32.87;101760.06;4198333;28;20040;-64
2022/03/22 01:33:40;;;;;;;2.17;1.00;;;;;;;22.62;32.79;101762.56;4198035;28;20090;-63
2022/03/22 01:35:43;;;;;;;3.58;0.90;;;;;;;22.61;32.84;101760.91;4198379;28;20036;-63
2022/03/22 01:37:48;;;;;;;1.20;1.00;;;;;;;22.62;32.98;101759.78;4198057;28;20041;-63
2022/03/22 01:39:49;;;;;;;;;;;;;;;22.61;32.35;101762.84;4198788;28;20094;-64
2022/03/22 01:41:59;;;;;;;1.45;0.90;;;;;;;22.63;32.96;101757.81;4196926;28;19955;-63
2022/03/22 01:44:03;;;;;;;3.70;1.15;;;;;;;22.64;32.91;101760.38;4181876;28;20102;-66
2022/03/22 01:46:05;;;;;;;1.27;1.00;;;;;;;22.64;32.81;101762.31;4164357;28;20041;-64
2022/03/22 01:48:06;;;;;;;1.70;0.88;;;;;;;22.60;32.86;101753.66;4197750;28;20526;-64
2022/03/22 01:50:12;;;;;;;2.63;1.20;;;;;;;22.63;33.02;101752.25;4197984;28;20044;-63
2022/03/22 01:54:56;;;;;;;1.80;1.00;;;;;;;22.62;32.91;101759.78;4142877;28;20044;-63
2022/03/22 01:56:57;;;;;;;2.17;0.90;;;;;;;22.63;33.08;101755.03;4198320;28;20102;-64
2022/03/22 01:59:01;;;;;;;1.80;0.90;;;;;;;22.61;32.77;101755.31;4198675;28;20375;-63
2022/03/22 02:07:51;;;;;;;1.50;0.80;;;;;;;22.61;32.82;101766.47;4199084;28;20090;-65
2022/03/22 02:09:53;;;;;;;3.13;0.98;;;;;;;22.59;32.82;101771.50;4197595;28;20037;-64
2022/03/22 02:12:45;;;;;;;2.28;1.05;;;;;;;22.53;32.90;101769.78;4180199;28;20133;-63
2022/03/22 02:14:49;;;;;;;1.60;0.90;;;;;;;22.61;32.79;101786.00;4197564;28;20040;-64
2022/03/22 02:16:51;;;;;;;1.38;1.15;;;;;;;22.60;33.30;101791.88;4197510;28;20556;-64
2022/03/22 02:18:53;;;;;;;1.40;0.90;;;;;;;22.62;32.88;101798.00;4197506;28;20422;-64
2022/03/22 02:20:55;;;;;;;1.17;1.02;;;;;;;22.60;32.95;101798.28;4198968;28;20052;-64
2022/03/22 02:24:07;;;;;;;1.42;0.80;;;;;;;22.59;32.63;101807.78;4207669;28;20024;-66
2022/03/22 02:26:09;;;;;;;2.83;1.10;;;;;;;22.58;32.92;101798.53;4159114;28;20557;-64
2022/03/22 02:28:13;;;;;;;1.27;0.80;;;;;;;22.61;32.78;101805.53;4181233;28;20095;-64
2022/03/22 02:30:15;;;;;;;1.52;0.93;;;;;;;22.61;33.08;101811.13;4180479;28;20041;-64
2022/03/22 02:32:26;;;;;;;2.42;1.05;;;;;;;22.60;32.94;101809.44;4181120;28;20603;-64
2022/03/22 02:34:43;;;;;;;1.67;0.95;;;;;;;22.60;32.89;101803.84;4180547;28;20098;-64
2022/03/22 02:36:47;;;;;;;5.60;1.58;;;;;;;22.61;32.93;101808.31;4178969;28;20103;-64
2022/03/22 02:38:49;;;;;;;3.72;1.42;;;;;;;22.60;33.03;101811.41;4184353;28;20040;-64
2022/03/22 02:40:53;;;;;;;5.85;1.38;;;;;;;22.61;33.23;101816.69;4196769;28;20483;-64
2022/03/22 02:42:59;;;;;;;4.32;1.15;;;;;;;22.61;32.83;101818.66;4191389;28;20040;-64
2022/03/22 02:45:11;;;;;;;2.25;1.23;;;;;;;22.59;32.86;101824.50;4213973;28;20036;-62
2022/03/22 02:47:13;;;;;;;5.13;0.98;;;;;;;22.60;33.05;101826.19;4188567;28;20033;-62
2022/03/22 02:49:15;;;;;;;1.92;1.08;;;;;;;22.60;33.00;101819.75;4179178;28;20045;-62
2022/03/22 02:51:19;;;;;;;3.40;1.35;;;;;;;22.61;33.32;101822.28;4196430;28;20094;-63
2022/03/22 02:53:20;;;;;;;2.17;1.17;;;;;;;22.61;33.22;101816.69;4200452;28;20075;-62
2022/03/22 02:55:38;;;;;;;6.85;1.33;;;;;;;22.61;33.51;101799.94;4200698;28;20051;-64
2022/03/22 02:57:43;;;;;;;4.53;2.03;;;;;;;22.61;33.04;101794.38;4182838;28;20041;-62
2022/03/22 02:59:47;;;;;;;1.95;1.25;;;;;;;22.62;33.13;101790.47;4204636;28;20098;-63
2022/03/22 03:01:48;;;;;;;5.87;1.33;;;;;;;22.62;33.37;101782.09;4215513;28;20168;-63
2022/03/22 03:03:50;;;;;;;5.18;1.75;;;;;;;22.61;33.76;101799.94;4216451;28;20044;-64
2022/03/22 03:06:05;;;;;;;3.85;1.25;;;;;;;22.60;33.71;101784.34;4216128;28;20044;-64
2022/03/22 03:08:07;;;;;;;4.20;1.55;;;;;;;22.62;33.96;101787.69;4216903;28;20028;-63
2022/03/22 03:10:09;;;;;;;5.25;1.92;;;;;;;22.62;33.83;101782.09;4209722;28;20052;-62
2022/03/22 03:12:11;;;;;;;3.70;1.50;;;;;;;22.62;33.81;101793.25;4200538;28;20565;-62
2022/03/22 03:16:47;;;;;;;3.67;1.58;;;;;;;22.60;33.46;101798.28;4201763;28;20522;-64
2022/03/22 03:18:51;;;;;;;6.07;1.60;;;;;;;22.63;34.57;101802.47;4198613;28;20041;-64
2022/03/22 03:20:53;;;;;;;8.45;1.80;;;;;;;22.64;34.46;101810.59;4200351;28;20082;-64
2022/03/22 03:22:57;;;;;;;3.58;1.65;;;;;;;22.63;34.12;101803.28;4199719;28;20434;-64
2022/03/22 03:24:59;;;;;;;2.88;1.20;;;;;;;22.64;35.23;101805.00;4200472;28;20032;-64
2022/03/22 03:27:07;;;;;;;4.18;1.40;;;;;;;22.64;34.23;101807.78;4200833;28;20102;-63
2022/03/22 03:29:09;;;;;;;4.15;1.80;;;;;;;22.65;35.10;101808.63;4199903;28;20044;-62
2022/03/22 03:31:10;;;;;;;7.43;1.77;;;;;;;22.64;34.85;101804.16;4200228;28;20465;-64
2022/03/22 03:33:12;;;;;;;4.82;1.30;;;;;;;22.65;35.04;101805.84;4199246;28;20040;-63
2022/03/22 03:35:13;;;;;;;4.82;1.80;;;;;;;22.65;35.49;101798.31;4200498;28;20029;-63
2022/03/22 03:37:44;;;;;;;3.95;1.70;;;;;;;22.64;35.73;101795.78;4200090;28;20472;-63
2022/03/22 03:39:46;;;;;;;3.58;1.52;;;;;;;22.65;35.13;101795.50;4200259;28;20546;-64
2022/03/22 03:41:53;;;;;;;2.80;1.45;;;;;;;22.63;35.61;101783.78;4199417;28;20044;-63
2022/03/22 03:43:54;;;;;;;3.13;1.55;;;;;;;22.63;35.98;101780.97;4199569;28;20037;-64
2022/03/22 03:48:37;;;;;;;5.15;1.77;;;;;;;22.67;35.71;101776.53;4165741;28;20087;-64
2022/03/22 03:50:39;;;;;;;8.40;2.25;;;;;;;22.67;36.48;101770.97;4147457;28;20555;-64
2022/03/22 03:52:41;;;;;;;11.02;4.30;;;;;;;22.69;35.96;101770.72;4131880;28;20085;-64
2022/03/22 03:54:43;;;;;;;6.47;1.75;;;;;;;22.67;35.74;101787.69;4179241;28;20086;-65
2022/03/22 03:56:58;;;;;;;6.53;2.03;;;;;;;22.69;35.55;101801.41;4200395;28;20044;-63
2022/03/22 03:59:01;;;;;;;5.40;1.92;;;;;;;22.69;36.03;101806.97;4200310;28;20118;-64
2022/03/22 04:01:02;;;;;;;4.00;1.75;;;;;;;22.70;36.39;101803.06;4200580;28;20098;-64
2022/03/22 04:03:04;;;;;;;5.13;2.08;;;;;;;22.70;35.83;101803.91;4199099;28;20032;-65
2022/03/22 04:05:09;;;;;;;443.35;300.83;;;;;;;22.69;36.24;101802.22;4181076;28;20614;-64
2022/03/22 04:07:17;;;;;;;413.92;289.25;;;;;;;22.69;36.17;101799.44;4199424;28;20099;-64
2022/03/22 04:09:19;;;;;;;352.48;234.27;;;;;;;22.69;36.44;101791.06;4199815;28;20052;-63
2022/03/22 04:11:20;;;;;;;231.88;147.38;;;;;;;22.71;36.26;101788.84;4200288;28;20085;-63
2022/03/22 04:13:21;;;;;;;188.98;117.05;;;;;;;22.72;36.23;101784.91;4201106;28;20084;-64
2022/03/22 04:15:23;;;;;;;177.98;109.15;;;;;;;22.71;36.30;101793.56;4199295;28;20094;-64
2022/03/22 04:17:25;;;;;;;131.13;81.18;;;;;;;22.72;36.33;101807.25;4200799;28;20074;-63
2022/03/22 04:19:28;;;;;;;113.32;69.15;;;;;;;22.72;36.38;101809.19;4200237;28;20045;-62
2022/03/22 04:21:30;;;;;;;103.03;64.95;;;;;;;22.71;36.37;101808.38;4199539;28;20044;-64
2022/03/22 04:23:31;;;;;;;111.53;68.70;;;;;;;22.71;36.26;101800.00;4199893;28;20092;-64
2022/03/22 04:25:33;;;;;;;118.20;70.72;;;;;;;22.71;35.93;101797.19;4199369;28;20033;-64
2022/03/22 04:34:33;;;;;;;82.40;48.75;;;;;;;22.72;35.94;101795.25;4200008;28;20040;-65
2022/03/22 04:36:35;;;;;;;80.07;47.45;;;;;;;22.71;35.99;101797.19;4198871;28;20094;-63
2022/03/22 04:38:36;;;;;;;75.93;46.95;;;;;;;22.71;35.77;101801.94;4199442;28;20040;-63
2022/03/22 04:40:39;;;;;;;81.30;51.30;;;;;;;22.71;36.08;101796.38;4200019;28;20039;-64
2022/03/22 04:43:01;;;;;;;79.93;50.25;;;;;;;22.68;34.84;101800.56;4199528;28;20028;-63
2022/03/22 04:45:04;;;;;;;60.97;38.72;;;;;;;22.70;34.72;101809.47;4183541;28;20470;-64
2022/03/22 04:47:05;;;;;;;65.45;41.65;;;;;;;22.70;35.33;101805.84;4199417;28;20089;-64
2022/03/22 04:49:07;;;;;;;47.53;28.70;;;;;;;22.68;34.07;101811.72;4198543;28;20037;-64
2022/03/22 04:58:07;;;;;;;53.08;32.13;;;;;;;22.64;34.93;101788.25;4200003;28;20036;-63
2022/03/22 05:00:10;;;;;;;40.47;25.73;;;;;;;22.63;34.06;101792.13;4199180;28;20060;-64
2022/03/22 05:02:14;;;;;;;44.00;28.10;;;;;;;22.61;34.30;101776.81;4198251;28;20086;-64
2022/03/22 05:04:15;;;;;;;41.20;25.67;;;;;;;22.63;33.76;101780.97;4198427;28;20040;-64
2022/03/22 05:06:25;;;;;;;37.35;24.58;;;;;;;22.62;33.76;101768.16;4198185;28;20460;-63
2022/03/22 05:08:32;;;;;;;41.92;26.73;;;;;;;22.62;34.50;101765.34;4199106;28;20101;-64
2022/03/22 05:10:35;;;;;;;30.98;20.88;;;;;;;22.62;33.78;101767.31;4198205;28;20040;-65
2022/03/22 05:12:40;;;;;;;42.35;27.27;;;;;;;22.61;34.28;101783.22;4197354;28;20496;-64
2022/03/22 05:14:42;;;;;;;;;;;;;;;22.60;34.30;101808.59;4197775;28;20040;-64
2022/03/22 05:16:45;;;;;;;28.80;18.27;;;;;;;22.64;33.38;101805.00;4198965;28;20356;-64
2022/03/22 05:18:50;;;;;;;27.75;17.88;;;;;;;22.63;33.60;101800.50;4198359;28;20036;-64
2022/03/22 05:20:51;;;;;;;32.45;21.70;;;;;;;22.62;33.53;101807.19;4197630;28;20480;-64
2022/03/22 05:22:53;;;;;;;32.35;20.98;;;;;;;22.62;33.71;101807.19;4198046;28;20041;-64
2022/03/22 05:24:58;;;;;;;30.90;20.17;;;;;;;22.61;34.01;101811.13;4198272;28;20044;-64
2022/03/22 05:26:59;;;;;;;;;;;;;;;22.58;33.78;101811.66;4198600;28;20036;-64
2022/03/22 05:29:04;;;;;;;23.50;15.07;;;;;;;22.61;33.34;101808.31;4198597;28;20693;-65
2022/03/22 05:31:09;;;;;;;20.27;13.55;;;;;;;22.61;33.21;101808.31;4197533;28;20098;-65
2022/03/22 05:33:10;;;;;;;24.80;16.35;;;;;;;22.59;33.12;101807.78;4197380;28;20040;-65
2022/03/22 05:35:11;;;;;;;25.48;16.40;;;;;;;22.59;33.57;101810.56;4197082;28;20103;-62
2022/03/22 05:37:13;;;;;;;27.33;17.60;;;;;;;22.58;33.95;101811.66;4197735;28;20044;-63
2022/03/22 05:39:15;;;;;;;25.90;15.48;;;;;;;22.56;33.17;101802.72;4197251;28;20067;-63
2022/03/22 05:41:16;;;;;;;17.70;11.30;;;;;;;22.56;33.18;101809.13;4197226;28;20086;-63
2022/03/22 05:43:18;;;;;;;21.30;13.30;;;;;;;22.54;33.29;101811.38;4197560;28;20484;-63
2022/03/22 05:45:19;;;;;;;21.15;14.57;;;;;;;22.53;33.55;101809.66;4209207;28;20532;-63
2022/03/22 05:47:21;;;;;;;16.02;11.18;;;;;;;22.53;32.87;101812.47;4214178;28;20044;-63
2022/03/22 05:49:27;;;;;;;14.45;9.85;;;;;;;22.53;33.28;101814.41;4199736;28;20524;-63
2022/03/22 05:51:29;;;;;;;15.35;10.18;;;;;;;22.54;32.91;101816.09;4197250;28;20048;-63
2022/03/22 05:53:30;;;;;;;18.20;11.35;;;;;;;22.52;33.27;101808.00;4180382;28;20037;-63
2022/03/22 05:55:37;;;;;;;15.02;10.45;;;;;;;22.53;33.19;101814.41;4196772;28;20044;-63
2022/03/22 05:57:38;;;;;;;15.82;9.40;;;;;;;22.52;32.63;101813.56;4197573;28;20102;-64
2022/03/22 05:59:40;;;;;;;15.35;10.52;;;;;;;22.53;33.08;101814.41;4197440;28;20085;-64
2022/03/22 06:01:44;;;;;;;16.30;10.15;;;;;;;22.53;32.92;101817.19;4196961;28;20037;-64
2022/03/22 06:03:45;;;;;;;18.00;10.55;;;;;;;22.52;33.09;101819.16;4197268;28;20102;-63
2022/03/22 06:05:47;;;;;;;19.42;12.43;;;;;;;22.53;33.40;101820.00;4197159;28;20078;-65
2022/03/22 06:07:50;;;;;;;17.20;10.20;;;;;;;22.52;33.13;101819.16;4196882;28;20037;-65
2022/03/22 06:09:54;;;;;;;16.42;10.18;;;;;;;22.53;33.35;101825.56;4196577;28;20093;-65
2022/03/22 06:11:56;;;;;;;13.05;9.82;;;;;;;22.51;33.20;101814.69;4196425;28;20446;-65
2022/03/22 06:13:57;;;;;;;12.95;8.88;;;;;;;22.51;32.91;101811.91;4197372;28;20094;-65
2022/03/22 06:15:58;;;;;;;12.50;8.70;;;;;;;22.50;32.71;101810.22;4197559;28;20094;-65
2022/03/22 06:18:05;;;;;;;15.25;9.23;;;;;;;22.52;33.48;101809.94;4198002;28;20082;-64
2022/03/22 06:20:10;;;;;;;12.23;8.82;;;;;;;22.51;33.33;101813.84;4196760;28;20094;-65
2022/03/22 06:22:11;;;;;;;12.90;8.50;;;;;;;22.51;33.30;101809.13;4196695;28;20106;-65
2022/03/22 06:24:13;;;;;;;13.80;8.23;;;;;;;22.50;32.82;101810.22;4197099;28;20036;-63
2022/03/22 06:26:15;;;;;;;12.60;7.53;;;;;;;22.51;32.59;101816.66;4197443;28;20028;-63
2022/03/22 06:28:19;;;;;;;11.38;6.97;;;;;;;22.43;32.74;101803.22;4196618;28;20476;-63
2022/03/22 06:30:21;;;;;;;12.60;7.68;;;;;;;22.50;32.86;101812.19;4196698;28;20045;-63
2022/03/22 06:32:25;;;;;;;12.20;7.82;;;;;;;22.50;33.13;101810.22;4196428;28;20052;-63
2022/03/22 06:34:29;;;;;;;11.48;7.18;;;;;;;22.50;33.12;101814.97;4197051;28;20036;-63
2022/03/22 06:36:31;;;;;;;9.20;6.60;;;;;;;22.51;32.68;101811.06;4197225;28;20040;-63
2022/03/22 06:38:32;;;;;;;12.15;7.25;;;;;;;22.50;33.31;101814.97;4196656;28;20087;-63
2022/03/22 06:40:39;;;;;;;12.35;6.80;;;;;;;22.48;32.99;101812.44;4196474;28;20040;-62
2022/03/22 06:42:41;;;;;;;9.57;6.22;;;;;;;22.50;32.99;101814.97;4195973;28;20048;-63
2022/03/22 06:44:43;;;;;;;10.27;6.82;;;;;;;22.50;32.54;101828.91;4196962;28;20109;-65
2022/03/22 06:46:44;;;;;;;10.68;7.38;;;;;;;22.49;33.09;101836.41;4198440;28;20041;-63
2022/03/22 06:48:45;;;;;;;9.00;6.10;;;;;;;22.49;32.53;101836.41;4213167;28;20031;-63
2022/03/22 06:50:51;;;;;;;8.82;6.25;;;;;;;22.47;32.53;101837.81;4205434;28;20026;-63
2022/03/22 06:52:57;;;;;;;;;;;;;;;22.47;33.09;101843.41;4197153;28;20097;-64
2022/03/22 06:54:59;;;;;;;8.88;5.32;;;;;;;22.52;32.56;101841.47;4197624;28;19920;-64
2022/03/22 06:57:01;;;;;;;8.18;5.32;;;;;;;22.52;32.76;101837.84;4196989;28;20420;-64
2022/03/22 06:59:05;;;;;;;7.72;4.93;;;;;;;22.50;32.46;101832.53;4196803;28;20097;-65
2022/03/22 07:01:07;;;;;;;8.65;4.90;;;;;;;22.50;32.27;101834.50;4196609;28;20121;-64
2022/03/22 07:03:09;;;;;;;5.57;3.90;;;;;;;22.49;32.04;101830.00;4197062;28;20044;-65
2022/03/22 07:05:11;;;;;;;6.25;4.25;;;;;;;22.49;32.03;101832.78;4179030;28;20107;-64
2022/03/22 07:07:13;;;;;;;7.38;4.78;;;;;;;22.44;32.78;101828.03;4196558;28;20094;-63
2022/03/22 07:09:14;;;;;;;5.25;3.88;;;;;;;22.46;32.15;101839.78;4179510;28;20147;-62
2022/03/22 07:13:35;;;;;;;7.47;4.95;;;;;;;22.46;32.42;101841.72;4197607;28;20062;-63
2022/03/22 07:15:38;;;;;;;5.80;4.20;;;;;;;22.46;32.32;101847.31;4196382;28;20044;-63
2022/03/22 07:17:40;;;;;;;7.07;4.50;;;;;;;22.45;32.22;101852.03;4196644;28;20041;-63
2022/03/22 07:19:42;;;;;;;6.72;4.22;;;;;;;22.46;32.63;101847.31;4196474;28;20036;-63
2022/03/22 07:21:45;;;;;;;5.93;4.07;;;;;;;22.44;32.41;101843.94;4196576;28;20484;-63
2022/03/22 07:23:46;;;;;;;6.22;4.10;;;;;;;22.44;32.48;101847.56;4196521;28;20090;-63
2022/03/22 07:25:48;;;;;;;5.32;3.95;;;;;;;22.43;32.14;101845.03;4196511;28;20090;-63
2022/03/22 07:27:49;;;;;;;5.55;3.75;;;;;;;22.44;32.23;101846.72;4196666;28;20045;-63
2022/03/22 07:29:51;;;;;;;5.53;3.83;;;;;;;22.44;32.30;101855.09;4194740;28;20040;-62
2022/03/22 07:31:53;;;;;;;5.72;3.58;;;;;;;22.41;32.39;101850.06;4196210;28;20040;-63
2022/03/22 07:33:54;;;;;;;7.30;4.28;;;;;;;22.44;32.58;101849.50;4196394;28;20040;-63
2022/03/22 07:35:56;;;;;;;4.32;3.55;;;;;;;22.43;32.68;101858.97;4196599;28;20410;-63
2022/03/22 07:37:57;;;;;;;6.53;3.63;;;;;;;22.44;32.42;101855.09;4196927;28;20032;-63
2022/03/22 07:39:59;;;;;;;3.80;2.97;;;;;;;22.43;32.33;101847.81;4199390;28;20045;-63
2022/03/22 07:42:01;;;;;;;5.30;3.58;;;;;;;22.44;32.41;101846.72;4199177;28;20040;-63
2022/03/22 07:44:06;;;;;;;4.90;3.25;;;;;;;22.44;32.43;101855.09;4199634;28;20036;-63
2022/03/22 07:46:07;;;;;;;;;;;;;;;22.41;32.99;101844.47;4199984;28;20044;-63
2022/03/22 07:48:09;;;;;;;6.03;3.10;;;;;;;22.46;32.17;101838.94;4197615;28;19916;-64
2022/03/22 07:53:15;;;;;;;3.95;2.83;;;;;;;22.46;32.34;101848.13;4199791;28;20090;-64
2022/03/22 07:54:54;;;;;;;4.88;3.20;;;;;;;22.45;31.91;101851.19;4185326;28;20461;-64
2022/03/22 07:56:56;;;;;;;3.63;3.00;;;;;;;22.44;32.36;101852.28;4213345;28;20040;-64
2022/03/22 07:58:58;;;;;;;3.47;2.78;;;;;;;22.44;31.96;101846.72;4215614;28;20273;-64
2022/03/22 08:00:59;;;;;;;4.07;2.70;;;;;;;22.39;32.31;101843.91;4201915;28;20037;-64
2022/03/22 08:03:03;;;;;;;3.78;2.63;;;;;;;22.42;32.12;101857.31;4198469;28;20044;-64
2022/03/22 08:05:05;;;;;;;4.82;2.85;;;;;;;22.42;32.23;101846.16;4199533;28;20377;-64
2022/03/22 08:07:07;;;;;;;4.07;2.80;;;;;;;22.41;31.97;101839.75;4199192;28;20094;-64
2022/03/22 08:09:12;;;;;;;3.92;2.83;;;;;;;22.41;32.14;101836.13;4198312;28;20040;-65
2022/03/22 08:11:16;;;;;;;2.50;2.00;;;;;;;22.39;31.80;101836.38;4199116;28;20098;-64
2022/03/22 08:13:20;;;;;;;4.50;2.30;;;;;;;22.40;31.96;101840.00;4212747;28;20043;-65
2022/03/22 08:15:22;;;;;;;3.13;2.17;;;;;;;22.41;32.30;101838.91;4199021;28;20285;-65
2022/03/22 08:17:23;;;;;;;2.40;2.15;;;;;;;22.41;32.20;101844.47;4199501;28;20036;-65
2022/03/22 08:19:28;;;;;;;3.53;2.58;;;;;;;22.40;31.96;101851.16;4198820;28;20044;-64
2022/03/22 08:21:30;;;;;;;3.08;2.28;;;;;;;22.40;32.15;101848.34;4198637;28;20048;-64
2022/03/22 08:23:34;;;;;;;3.67;2.50;;;;;;;22.40;31.87;101851.16;4212942;28;20149;-64
2022/03/22 08:25:40;;;;;;;3.88;2.47;;;;;;;22.39;31.76;101852.25;4212625;28;20106;-64
2022/03/22 08:27:41;;;;;;;4.35;2.38;;;;;;;22.40;32.06;101853.94;4199021;28;20040;-64
2022/03/22 08:29:43;;;;;;;4.63;2.25;;;;;;;22.39;32.13;101864.25;4181214;28;20110;-64
2022/03/22 08:31:44;;;;;;;3.50;2.30;;;;;;;22.38;32.07;101875.69;4198752;28;20098;-64
2022/03/22 08:33:53;;;;;;;2.42;1.92;;;;;;;22.38;31.84;101875.69;4198676;28;20070;-64
2022/03/22 08:35:55;;;;;;;3.05;2.05;;;;;;;22.38;31.99;101878.47;4198939;28;20098;-64
2022/03/22 08:37:56;;;;;;;2.83;1.98;;;;;;;22.36;31.48;101872.31;4198830;28;20094;-64
2022/03/22 08:39:58;;;;;;;3.63;2.08;;;;;;;22.38;31.84;101872.91;4198717;28;20121;-64
2022/03/22 08:41:59;;;;;;;4.85;2.10;;;;;;;22.37;31.74;101872.06;4198024;28;20037;-64
2022/03/22 08:44:00;;;;;;;3.42;2.10;;;;;;;22.36;31.59;101881.53;4199307;28;20028;-64
2022/03/22 08:46:06;;;;;;;3.08;2.00;;;;;;;22.35;31.53;101884.56;4198519;28;20052;-65
2022/03/22 08:48:12;;;;;;;3.05;1.65;;;;;;;22.35;31.24;101890.16;4198714;28;20090;-64
2022/03/22 08:50:19;;;;;;;3.00;1.60;;;;;;;22.31;31.76;101890.72;4197715;28;20102;-64
2022/03/22 08:52:21;;;;;;;3.00;1.90;;;;;;;22.35;31.75;101895.72;4197936;28;20250;-64
2022/03/22 08:54:22;;;;;;;2.97;1.98;;;;;;;22.33;31.53;101893.22;4197680;28;20078;-64
2022/03/22 08:56:24;;;;;;;2.58;1.83;;;;;;;22.32;31.57;101892.38;4198137;28;20041;-64
2022/03/22 08:58:25;;;;;;;2.60;1.70;;;;;;;22.31;31.32;101887.94;4198998;28;20453;-64
2022/03/22 09:00:26;;;;;;;3.75;1.60;;;;;;;22.32;31.40;101888.75;4197566;28;20546;-64
2022/03/22 09:02:28;;;;;;;2.22;1.63;;;;;;;22.31;31.71;101885.13;4195600;28;20052;-64
2022/03/22 09:06:57;;;;;;;2.78;1.35;;;;;;;22.29;31.41;101908.81;4199483;28;20089;-64
2022/03/22 09:09:01;;;;;;;3.83;1.60;;;;;;;22.30;31.24;101900.16;4198166;28;20084;-64
2022/03/22 09:11:04;;;;;;;2.90;2.08;;;;;;;22.30;31.21;101894.59;4199042;28;20330;-64
2022/03/22 09:13:07;;;;;;;1.83;1.45;;;;;;;22.29;31.43;101901.28;4197716;28;20117;-65
2022/03/22 09:15:09;;;;;;;2.55;1.58;;;;;;;22.27;31.45;101894.31;4197932;28;20049;-64
2022/03/22 09:17:11;;;;;;;1.67;1.50;;;;;;;22.28;31.60;101901.56;4198488;28;20434;-64
2022/03/22 09:19:18;;;;;;;2.50;1.50;;;;;;;22.27;31.71;101909.09;4198434;28;20535;-64
2022/03/22 09:21:20;;;;;;;3.20;1.60;;;;;;;22.27;31.42;101914.66;4198044;28;20032;-64
2022/03/22 09:23:21;;;;;;;2.17;1.15;;;;;;;22.27;31.22;101905.47;4198439;28;20094;-64
2022/03/22 09:25:23;;;;;;;2.63;1.50;;;;;;;22.27;31.54;101903.50;4198326;28;20430;-64
2022/03/22 09:27:24;;;;;;;2.13;1.40;;;;;;;22.26;31.12;101904.59;4211352;28;20040;-65
2022/03/22 09:29:26;;;;;;;2.38;1.33;;;;;;;22.26;31.47;101910.16;4213599;28;20109;-64
2022/03/22 09:31:34;;;;;;;2.53;1.67;;;;;;;22.23;31.22;101902.34;4197628;28;20044;-64
2022/03/22 09:33:36;;;;;;;1.95;1.40;;;;;;;22.26;31.48;101910.16;4197618;28;20583;-64
2022/03/22 09:35:38;;;;;;;2.85;1.45;;;;;;;22.25;31.51;101908.50;4197841;28;20033;-64
2022/03/22 09:37:42;;;;;;;1.98;1.00;;;;;;;22.25;31.24;101916.84;4197432;28;20098;-64
2022/03/22 09:39:46;;;;;;;2.00;1.25;;;;;;;22.24;31.83;101920.75;4192254;28;20565;-64
2022/03/22 09:41:51;;;;;;;1.30;1.10;;;;;;;22.24;31.41;101920.75;4197226;28;20442;-64
2022/03/22 09:43:53;;;;;;;1.65;1.35;;;;;;;22.24;31.54;101922.72;4214164;28;20326;-64
2022/03/22 09:45:57;;;;;;;2.65;1.58;;;;;;;22.23;31.48;101921.88;4213787;28;20040;-64
2022/03/22 09:47:59;;;;;;;2.33;1.27;;;;;;;22.24;31.26;101917.97;4181571;28;20094;-63
2022/03/22 09:50:06;;;;;;;2.47;1.50;;;;;;;22.23;31.62;101915.47;4181873;28;20562;-63
2022/03/22 09:52:09;;;;;;;1.75;1.23;;;;;;;22.24;31.68;101919.91;4180704;28;20439;-63
2022/03/22 09:54:24;;;;;;;1.63;1.13;;;;;;;22.24;31.58;101928.28;4181213;28;20036;-63
2022/03/22 09:56:29;;;;;;;2.00;1.10;;;;;;;22.24;31.73;101933.84;4180817;28;20037;-63
2022/03/22 09:58:31;;;;;;;1.55;1.20;;;;;;;22.16;31.61;101920.41;4187648;28;20101;-63
2022/03/22 10:00:33;;;;;;;1.70;1.35;;;;;;;22.24;31.42;101931.06;4214451;28;20097;-63
2022/03/22 10:02:35;;;;;;;4.30;1.60;;;;;;;22.21;31.37;101931.59;4212854;28;20109;-65
2022/03/22 10:04:37;;;;;;;2.22;1.33;;;;;;;22.24;31.19;101942.22;4213970;28;20040;-64
2022/03/22 10:06:50;;;;;;;1.88;0.98;;;;;;;22.20;31.59;101930.75;4214295;28;20052;-65
2022/03/22 10:08:52;;;;;;;1.60;1.13;;;;;;;22.22;31.43;101941.63;4214124;28;20097;-65
2022/03/22 10:11:01;;;;;;;1.30;1.20;;;;;;;22.22;31.46;101945.28;4214295;28;20047;-64